Overview Statistics Trail Chart Weather Telemetry Raw packets
 

This is the latest recevied weather packets stored in our database for station/object LKLN. If no packets are shown the sender has not sent any weather packets the latest 10 day(s).

<< 9 10 11 12 13 14 15 >>
Time Temp. Humidity Pressure Rain* Wind** Luminosity Snow
1788364872 22.78° C 43% 1020 hPa - - - -
1788363070 22.78° C 43% 1020 hPa - - - -
1788361271 23.89° C 38% 1020 hPa - - - -
1788359470 23.89° C 41% 1020 hPa - - - -
1788357664 23.89° C 38% 1020 hPa - - - -
1788355870 23.89° C 38% 1020 hPa - - - -
1788354071 22.78° C 43% 1021 hPa - - - -
1788352270 22.78° C 40% 1021 hPa - - - -
1788350477 22.78° C 43% 1021 hPa - - - -
1788348670 22.78° C 43% 1021 hPa - - - -
1788346871 22.78° C 43% 1021 hPa - - - -
1788345069 22.78° C 46% 1022 hPa - - - -
1788343271 22.22° C 49% 1022 hPa - - - -
1788341481 21.11° C 52% 1022 hPa - - - -
1788339672 20° C 56% 1022 hPa - - - -
1788337869 18.89° C 59% 1022 hPa - - - -
1788336073 17.78° C 67% 1022 hPa - - - -
1788334269 17.22° C 67% 1022 hPa - - - -
1788332464 15° C 77% 1022 hPa - - - -
1788330670 13.89° C 82% 1022 hPa - - - -
1788328871 12.78° C 87% 1022 hPa - - - -
1788327071 12.22° C 87% 1022 hPa - - - -
1788325273 10° C 93% 1022 hPa - - - -
1788323470 10° C 93% 1022 hPa - - - -
1788321665 10° C 100% 1022 hPa - - - -

* Rain since midnight (hover to see other rain measurements)
** Current wind speed in m/s (hover to see current wind gust speed)